createdAt,value
2019-03-01T00:01:13.071Z,25.90
2019-03-01T00:03:42.460Z,24.43
2019-03-01T00:06:23.584Z,20.23
2019-03-01T00:08:55.874Z,20.62
2019-03-01T00:11:37.230Z,17.00
2019-03-01T00:14:25.643Z,15.88
2019-03-01T00:17:09.658Z,22.58
2019-03-01T00:19:47.454Z,18.75
2019-03-01T00:22:37.714Z,16.12
2019-03-01T00:25:18.680Z,13.93
2019-03-01T00:28:02.645Z,14.40
2019-03-01T00:30:43.440Z,15.65
2019-03-01T00:33:27.628Z,13.40
2019-03-01T00:35:59.946Z,14.63
2019-03-01T00:38:35.099Z,20.30
2019-03-01T00:41:10.081Z,21.05
2019-03-01T00:43:57.093Z,19.92
2019-03-01T00:46:26.454Z,16.30
2019-03-01T00:48:55.800Z,15.53
2019-03-01T00:51:25.161Z,12.05
2019-03-01T00:53:54.505Z,17.45
2019-03-01T00:56:23.936Z,13.32
2019-03-01T00:58:53.312Z,13.20
2019-03-01T01:01:22.674Z,13.10
2019-03-01T01:03:52.120Z,10.60
2019-03-01T01:06:21.469Z,16.02
2019-03-01T01:08:50.891Z,20.25
2019-03-01T01:11:20.241Z,16.30
2019-03-01T01:13:49.679Z,15.15
2019-03-01T01:16:19.148Z,20.32
2019-03-01T01:18:48.500Z,15.60
2019-03-01T01:21:17.852Z,19.92
2019-03-01T01:23:47.194Z,15.70
2019-03-01T01:26:16.550Z,18.73
2019-03-01T01:28:45.968Z,15.40
2019-03-01T01:31:15.307Z,19.70
2019-03-01T01:33:44.723Z,16.70
2019-03-01T01:36:13.776Z,16.80
2019-03-01T01:38:43.204Z,11.03
2019-03-01T01:41:12.606Z,15.13
2019-03-01T01:43:41.946Z,17.17
2019-03-01T01:46:11.397Z,11.43
2019-03-01T01:48:40.803Z,13.50
2019-03-01T01:51:10.165Z,13.90
2019-03-01T01:53:39.532Z,11.65
2019-03-01T01:56:08.879Z,17.23
2019-03-01T01:58:38.238Z,14.33
2019-03-01T02:01:06.992Z,13.43
2019-03-01T02:03:36.405Z,15.83
2019-03-01T02:06:05.755Z,17.37
2019-03-01T02:08:35.111Z,15.23
2019-03-01T02:11:03.929Z,12.40
2019-03-01T02:13:32.745Z,13.63
2019-03-01T02:16:01.592Z,18.03
2019-03-01T02:18:30.612Z,15.63
2019-03-01T02:20:59.449Z,15.47
2019-03-01T02:23:28.848Z,15.30
2019-03-01T02:25:57.599Z,11.47
2019-03-01T02:28:26.455Z,12.05
2019-03-01T02:31:01.614Z,9.15
2019-03-01T02:33:31.041Z,12.78
2019-03-01T02:36:00.405Z,17.10
2019-03-01T02:38:29.822Z,13.83
2019-03-01T02:40:59.154Z,16.77
2019-03-01T02:43:28.581Z,14.65
2019-03-01T02:45:58.002Z,13.78
2019-03-01T02:48:27.383Z,15.28
2019-03-01T02:50:56.791Z,13.68
2019-03-01T02:53:26.209Z,13.15
2019-03-01T02:55:55.584Z,11.03
2019-03-01T02:58:24.930Z,14.00
2019-03-01T03:00:54.370Z,15.53
2019-03-01T03:03:23.805Z,13.85
2019-03-01T03:06:11.062Z,15.93
2019-03-01T03:08:40.676Z,15.05
2019-03-01T03:11:10.081Z,14.33
2019-03-01T03:13:39.421Z,15.88
2019-03-01T03:16:08.849Z,16.17
2019-03-01T03:18:38.276Z,13.78
2019-03-01T03:21:07.695Z,13.25
2019-03-01T03:23:37.062Z,16.30
2019-03-01T03:26:06.471Z,19.82
2019-03-01T03:28:35.899Z,13.50
2019-03-01T03:31:05.324Z,20.37
2019-03-01T03:33:34.729Z,15.25
2019-03-01T03:36:04.144Z,18.57
2019-03-01T03:38:33.495Z,18.50
2019-03-01T03:41:02.920Z,27.22
2019-03-01T03:43:32.281Z,18.30
2019-03-01T03:46:01.697Z,14.85
2019-03-01T03:48:31.029Z,16.15
2019-03-01T03:51:00.448Z,20.82
2019-03-01T03:53:29.871Z,20.72
2019-03-01T03:55:59.298Z,20.72
2019-03-01T03:58:28.648Z,16.95
2019-03-01T04:00:58.282Z,20.32
2019-03-01T04:03:27.797Z,16.30
2019-03-01T04:05:57.152Z,14.83
2019-03-01T04:08:26.542Z,19.52
2019-03-01T04:10:55.894Z,27.70
2019-03-01T04:13:25.246Z,16.50
2019-03-01T04:15:54.654Z,16.30
2019-03-01T04:18:24.047Z,15.48
2019-03-01T04:20:53.358Z,13.32
2019-03-01T04:23:22.781Z,16.95
2019-03-01T04:25:52.203Z,16.35
2019-03-01T04:28:21.634Z,24.00
2019-03-01T04:30:50.999Z,17.42
2019-03-01T04:33:20.345Z,16.77
2019-03-01T04:35:49.773Z,15.78
2019-03-01T04:38:19.100Z,21.75
2019-03-01T04:40:48.511Z,16.80
2019-03-01T04:43:17.934Z,18.67
2019-03-01T04:45:47.355Z,41.33
2019-03-01T04:48:16.764Z,14.83
2019-03-01T04:50:46.110Z,13.05
2019-03-01T04:53:15.569Z,17.80
2019-03-01T04:55:44.964Z,23.77
2019-03-01T04:58:14.385Z,17.60
2019-03-01T05:00:43.727Z,34.98
2019-03-01T05:03:13.267Z,20.15
2019-03-01T05:05:42.726Z,14.63
2019-03-01T05:08:12.160Z,16.93
2019-03-01T05:10:41.512Z,23.55
2019-03-01T05:13:10.920Z,29.20
2019-03-01T05:15:40.289Z,22.85
2019-03-01T05:18:09.658Z,40.95
2019-03-01T05:20:38.796Z,21.80
2019-03-01T05:23:08.237Z,23.35
2019-03-01T05:25:37.594Z,20.72
2019-03-01T05:28:07.069Z,23.47
2019-03-01T05:30:36.492Z,27.85
2019-03-01T05:33:05.932Z,27.55
2019-03-01T05:35:35.347Z,94.87
2019-03-01T05:38:04.762Z,77.12
2019-03-01T05:40:34.104Z,54.77
2019-03-01T05:43:03.599Z,49.18
2019-03-01T05:45:32.965Z,30.65
2019-03-01T05:48:02.321Z,25.20
2019-03-01T05:50:31.681Z,25.97
2019-03-01T05:53:01.035Z,16.60
2019-03-01T05:55:30.465Z,25.62
2019-03-01T05:58:20.984Z,25.77
2019-03-01T06:00:51.602Z,30.37
2019-03-01T06:03:47.629Z,28.27
2019-03-01T06:06:22.433Z,31.57
2019-03-01T06:09:27.690Z,23.73
2019-03-01T06:12:19.426Z,26.75
2019-03-01T06:15:10.978Z,25.10
2019-03-01T06:17:46.060Z,29.98
2019-03-01T06:20:33.240Z,34.13
2019-03-01T06:23:23.386Z,25.52
2019-03-01T06:25:55.736Z,21.87
2019-03-01T06:28:28.078Z,25.25
2019-03-01T06:31:09.090Z,22.42
2019-03-01T06:33:47.141Z,23.02
2019-03-01T06:36:34.354Z,22.17
2019-03-01T06:39:16.839Z,22.85
2019-03-01T06:42:08.893Z,20.43
2019-03-01T06:44:55.831Z,21.17
2019-03-01T06:47:45.777Z,21.68
2019-03-01T06:50:19.324Z,19.02
2019-03-01T06:52:48.983Z,20.77
2019-03-01T06:55:30.424Z,28.23
2019-03-01T06:57:59.911Z,25.68
2019-03-01T07:00:30.932Z,19.67
2019-03-01T07:03:01.271Z,26.23
2019-03-01T07:05:30.648Z,54.42
2019-03-01T07:07:59.986Z,30.50
2019-03-01T07:10:29.367Z,22.05
2019-03-01T07:12:58.731Z,19.35
2019-03-01T07:15:28.155Z,29.07
2019-03-01T07:17:57.600Z,23.90
2019-03-01T07:20:27.029Z,46.30
2019-03-01T07:22:56.428Z,21.65
2019-03-01T07:25:25.856Z,34.03
2019-03-01T07:27:55.292Z,24.55
2019-03-01T07:30:24.653Z,26.02
2019-03-01T07:32:54.020Z,25.92
2019-03-01T07:35:23.365Z,33.53
2019-03-01T07:37:52.732Z,25.85
2019-03-01T07:40:22.100Z,29.32
2019-03-01T07:42:51.540Z,22.35
2019-03-01T07:45:21.580Z,24.50
2019-03-01T07:47:50.954Z,22.58
2019-03-01T07:50:20.313Z,27.48
2019-03-01T07:52:49.681Z,21.95
2019-03-01T07:55:19.118Z,32.28
2019-03-01T07:57:49.733Z,63.98
2019-03-01T08:00:19.647Z,24.35
2019-03-01T08:02:49.037Z,31.85
2019-03-01T08:05:18.411Z,42.58
2019-03-01T08:07:55.759Z,40.50
2019-03-01T08:10:22.494Z,31.25
2019-03-01T08:12:49.961Z,23.07
2019-03-01T08:15:19.323Z,26.68
2019-03-01T08:17:48.810Z,25.10
2019-03-01T08:20:19.046Z,28.92
2019-03-01T08:22:49.664Z,30.30
2019-03-01T08:25:23.641Z,30.20
2019-03-01T08:27:50.659Z,22.30
2019-03-01T08:30:20.130Z,27.65
2019-03-01T08:32:49.506Z,27.98
2019-03-01T08:35:19.437Z,36.98
2019-03-01T08:37:49.758Z,37.20
2019-03-01T08:40:20.101Z,34.13
2019-03-01T08:42:49.558Z,27.37
2019-03-01T08:45:22.187Z,32.73
2019-03-01T08:47:51.609Z,26.10
2019-03-01T08:50:21.046Z,22.55
2019-03-01T08:52:50.484Z,21.95
2019-03-01T08:55:30.331Z,34.88
2019-03-01T08:58:03.436Z,35.80
2019-03-01T09:00:39.868Z,27.25
2019-03-01T09:03:12.220Z,35.38
2019-03-01T09:05:41.591Z,27.50
2019-03-01T09:08:10.972Z,25.52
2019-03-01T09:10:40.404Z,36.28
2019-03-01T09:13:09.850Z,24.87
2019-03-01T09:15:39.231Z,25.95
2019-03-01T09:18:11.598Z,21.27
2019-03-01T09:20:39.773Z,26.25
2019-03-01T09:23:21.146Z,32.20
2019-03-01T09:25:41.369Z,21.12
2019-03-01T09:28:11.388Z,26.35
2019-03-01T09:30:43.528Z,27.22
2019-03-01T09:33:11.934Z,23.47
2019-03-01T09:35:43.919Z,22.02
2019-03-01T09:38:13.385Z,25.37
2019-03-01T09:40:42.822Z,24.07
2019-03-01T09:43:12.284Z,21.95
2019-03-01T09:45:41.666Z,23.73
2019-03-01T09:48:12.235Z,23.22
2019-03-01T09:50:42.262Z,22.22
2019-03-01T09:53:11.619Z,27.82
2019-03-01T09:55:41.066Z,25.60
2019-03-01T09:58:10.426Z,23.80
2019-03-01T10:00:56.573Z,24.27
2019-03-01T10:03:25.677Z,18.27
2019-03-01T10:05:55.144Z,24.52
2019-03-01T10:08:24.523Z,22.95
2019-03-01T10:10:53.974Z,25.27
2019-03-01T10:13:23.350Z,16.97
2019-03-01T10:15:52.718Z,19.37
2019-03-01T10:18:22.144Z,19.25
2019-03-01T10:20:51.584Z,22.90
2019-03-01T10:23:21.013Z,24.80
2019-03-01T10:25:50.501Z,21.23
2019-03-01T10:28:19.848Z,31.12
2019-03-01T10:30:49.214Z,23.92
2019-03-01T10:33:18.600Z,18.40
2019-03-01T10:35:48.024Z,20.68
2019-03-01T10:38:17.460Z,24.72
2019-03-01T10:40:46.826Z,23.10
2019-03-01T10:43:16.210Z,21.82
2019-03-01T10:45:45.639Z,20.77
2019-03-01T10:48:15.078Z,32.23
2019-03-01T10:50:44.510Z,15.83
2019-03-01T10:53:14.054Z,20.43
2019-03-01T10:55:43.488Z,20.00
2019-03-01T10:58:12.876Z,19.82
2019-03-01T11:00:42.344Z,23.27
2019-03-01T11:03:11.748Z,33.18
2019-03-01T11:05:41.227Z,22.70
2019-03-01T11:08:10.599Z,21.48
2019-03-01T11:10:40.832Z,16.80
2019-03-01T11:13:12.738Z,19.70
2019-03-01T11:15:42.235Z,24.20
2019-03-01T11:18:11.660Z,23.80
2019-03-01T11:20:41.090Z,17.60
2019-03-01T11:23:10.457Z,17.62
2019-03-01T11:25:39.892Z,20.40
2019-03-01T11:28:10.542Z,24.82
2019-03-01T11:30:40.217Z,28.92
2019-03-01T11:33:09.573Z,19.75
2019-03-01T11:35:38.999Z,22.07
2019-03-01T11:38:08.443Z,19.98
2019-03-01T11:40:39.210Z,21.52
2019-03-01T11:43:08.584Z,27.95
2019-03-01T11:45:38.026Z,24.87
2019-03-01T11:48:07.504Z,29.05
2019-03-01T11:50:36.936Z,31.23
2019-03-01T11:53:06.369Z,22.20
2019-03-01T11:55:35.818Z,20.92
2019-03-01T11:58:05.204Z,22.77
2019-03-01T12:00:34.681Z,21.20
2019-03-01T12:03:04.038Z,20.60
2019-03-01T12:05:33.527Z,18.77
2019-03-01T12:08:02.974Z,19.77
2019-03-01T12:10:32.620Z,22.30
2019-03-01T12:13:01.997Z,19.00
2019-03-01T12:15:31.438Z,17.02
2019-03-01T12:18:00.810Z,19.90
2019-03-01T12:20:32.522Z,15.60
2019-03-01T12:23:01.885Z,18.52
2019-03-01T12:25:31.323Z,22.32
2019-03-01T12:28:00.805Z,20.48
2019-03-01T12:30:30.241Z,16.87
2019-03-01T12:32:59.609Z,18.35
2019-03-01T12:35:29.055Z,19.45
2019-03-01T12:37:58.508Z,18.57
2019-03-01T12:40:31.543Z,21.23
2019-03-01T12:43:00.976Z,18.00
2019-03-01T12:45:30.368Z,24.10
2019-03-01T12:47:59.744Z,17.23
2019-03-01T12:50:29.278Z,19.20
2019-03-01T12:52:58.698Z,17.98
2019-03-01T12:55:29.244Z,18.82
2019-03-01T12:57:58.694Z,22.05
2019-03-01T13:00:40.203Z,16.62
2019-03-01T13:03:09.883Z,18.30
2019-03-01T13:05:39.557Z,15.78
2019-03-01T13:08:08.911Z,15.95
2019-03-01T13:10:40.140Z,18.45
2019-03-01T13:13:09.637Z,18.30
2019-03-01T13:15:39.006Z,19.67
2019-03-01T13:18:10.239Z,25.57
2019-03-01T13:20:39.697Z,22.37
2019-03-01T13:23:09.560Z,18.45
2019-03-01T13:25:39.010Z,22.75
2019-03-01T13:28:08.447Z,17.67
2019-03-01T13:30:37.894Z,21.45
2019-03-01T13:33:07.286Z,18.37
2019-03-01T13:35:36.702Z,14.83
2019-03-01T13:38:06.088Z,24.77
2019-03-01T13:40:35.525Z,15.63
2019-03-01T13:43:04.902Z,29.30
2019-03-01T13:45:34.336Z,21.65
2019-03-01T13:48:03.700Z,19.90
2019-03-01T13:50:33.082Z,20.62
2019-03-01T13:53:02.447Z,30.65
2019-03-01T13:55:31.817Z,18.80
2019-03-01T13:58:01.294Z,20.23
2019-03-01T14:00:30.716Z,16.60
2019-03-01T14:03:00.145Z,19.35
2019-03-01T14:05:29.596Z,15.40
2019-03-01T14:08:08.377Z,16.05
2019-03-01T14:10:30.403Z,20.97
2019-03-01T14:12:59.841Z,19.32
2019-03-01T14:15:30.020Z,22.70
2019-03-01T14:18:01.240Z,16.07
2019-03-01T14:20:30.641Z,19.85
2019-03-01T14:23:00.052Z,18.05
2019-03-01T14:25:29.490Z,17.27
2019-03-01T14:28:02.217Z,18.12
2019-03-01T14:30:33.267Z,19.75
2019-03-01T14:33:01.287Z,22.07
2019-03-01T14:35:30.736Z,16.85
2019-03-01T14:38:00.197Z,21.33
2019-03-01T14:40:29.650Z,23.77
2019-03-01T14:42:59.108Z,17.32
2019-03-01T14:45:33.248Z,21.33
2019-03-01T14:48:04.970Z,24.60
2019-03-01T14:50:34.759Z,18.27
2019-03-01T14:53:04.191Z,21.57
2019-03-01T14:55:39.675Z,30.23
2019-03-01T14:58:11.965Z,17.00
2019-03-01T15:00:49.619Z,62.73
2019-03-01T15:03:33.052Z,25.27
2019-03-01T15:06:02.429Z,30.00
2019-03-01T15:08:31.799Z,23.92
2019-03-01T15:11:04.271Z,22.05
2019-03-01T15:13:35.819Z,24.15
2019-03-01T15:16:06.048Z,20.20
2019-03-01T15:18:35.997Z,22.37
2019-03-01T15:21:06.658Z,28.07
2019-03-01T15:23:36.027Z,26.55
2019-03-01T15:26:05.703Z,25.70
2019-03-01T15:28:43.709Z,25.50
2019-03-01T15:31:13.163Z,26.55
2019-03-01T15:33:46.502Z,25.62
2019-03-01T15:36:17.450Z,23.47
2019-03-01T15:38:44.831Z,28.40
2019-03-01T15:41:14.269Z,25.72
2019-03-01T15:43:43.713Z,25.77
2019-03-01T15:46:14.357Z,21.82
2019-03-01T15:48:44.269Z,24.47
2019-03-01T15:51:13.656Z,23.45
2019-03-01T15:53:43.039Z,22.50
2019-03-01T15:56:12.568Z,24.70
2019-03-01T15:58:42.004Z,27.15
2019-03-01T16:01:12.115Z,21.95
2019-03-01T16:03:41.593Z,28.70
2019-03-01T16:06:17.310Z,27.05
2019-03-01T16:08:43.871Z,28.47
2019-03-01T16:11:13.662Z,24.35
2019-03-01T16:13:47.765Z,29.75
2019-03-01T16:16:14.576Z,33.78
2019-03-01T16:18:43.999Z,26.80
2019-03-01T16:21:13.417Z,28.10
2019-03-01T16:23:42.854Z,30.30
2019-03-01T16:26:12.297Z,26.55
2019-03-01T16:28:41.734Z,25.30
2019-03-01T16:31:11.146Z,26.57
2019-03-01T16:33:40.689Z,39.03
2019-03-01T16:36:11.676Z,88.97
2019-03-01T16:38:41.390Z,29.52
2019-03-01T16:41:12.289Z,28.27
2019-03-01T16:43:41.655Z,28.65
2019-03-01T16:46:11.116Z,39.75
2019-03-01T16:48:40.567Z,26.10
2019-03-01T16:51:10.226Z,27.13
2019-03-01T16:53:40.492Z,32.15
2019-03-01T16:56:10.955Z,33.65
2019-03-01T16:58:40.326Z,34.60
2019-03-01T17:01:09.765Z,36.33
2019-03-01T17:03:39.200Z,29.18
2019-03-01T17:06:10.458Z,27.48
2019-03-01T17:08:40.473Z,34.18
2019-03-01T17:11:10.015Z,30.48
2019-03-01T17:13:39.390Z,42.48
2019-03-01T17:16:08.806Z,46.30
2019-03-01T17:18:38.253Z,46.92
2019-03-01T17:21:08.723Z,42.13
2019-03-01T17:23:39.234Z,29.87
2019-03-01T17:26:09.403Z,34.83
2019-03-01T17:28:38.848Z,30.40
2019-03-01T17:31:08.220Z,23.30
2019-03-01T17:33:39.230Z,23.22
2019-03-01T17:36:08.935Z,24.00
2019-03-01T17:38:43.541Z,31.37
2019-03-01T17:41:09.813Z,29.82
2019-03-01T17:43:40.260Z,44.25
2019-03-01T17:46:09.709Z,37.95
2019-03-01T17:48:39.160Z,48.68
2019-03-01T17:51:08.793Z,44.33
2019-03-01T17:53:39.712Z,40.95
2019-03-01T17:56:09.150Z,42.78
2019-03-01T17:58:38.572Z,43.52
2019-03-01T18:01:08.025Z,62.13
2019-03-01T18:03:37.485Z,52.75
2019-03-01T18:06:06.855Z,59.13
2019-03-01T18:08:39.705Z,63.40
2019-03-01T18:11:08.793Z,59.03
2019-03-01T18:13:38.536Z,49.90
2019-03-01T18:16:07.988Z,41.83
2019-03-01T18:18:37.445Z,33.55
2019-03-01T18:21:10.166Z,43.00
2019-03-01T18:23:38.981Z,36.53
2019-03-01T18:26:08.466Z,33.02
2019-03-01T18:28:38.819Z,30.90
2019-03-01T18:31:08.416Z,30.40
2019-03-01T18:33:37.899Z,35.80
2019-03-01T18:36:08.179Z,34.43
2019-03-01T18:38:37.752Z,32.33
2019-03-01T18:41:07.212Z,32.88
2019-03-01T18:43:36.676Z,38.98
2019-03-01T18:46:06.113Z,48.60
2019-03-01T18:48:35.537Z,81.25
2019-03-01T18:51:06.933Z,98.65
2019-03-01T18:53:36.048Z,101.97
2019-03-01T18:56:05.434Z,86.08
2019-03-01T18:58:34.804Z,91.55
2019-03-01T19:01:07.813Z,119.60
2019-03-01T19:03:36.562Z,134.72
2019-03-01T19:06:06.619Z,88.22
2019-03-01T19:08:36.431Z,63.52
2019-03-01T19:11:06.202Z,71.25
2019-03-01T19:13:37.392Z,107.58
2019-03-01T19:16:06.920Z,50.80
2019-03-01T19:18:36.355Z,34.95
2019-03-01T19:21:06.272Z,34.38
2019-03-01T19:23:35.729Z,35.45
2019-03-01T19:26:05.185Z,60.90
2019-03-01T19:28:34.662Z,58.28
2019-03-01T19:31:04.011Z,63.73
2019-03-01T19:33:34.598Z,58.63
2019-03-01T19:36:04.596Z,55.70
2019-03-01T19:38:33.961Z,44.60
2019-03-01T19:41:03.398Z,43.83
2019-03-01T19:43:32.755Z,46.35
2019-03-01T19:46:02.199Z,52.43
2019-03-01T19:48:34.530Z,52.48
2019-03-01T19:51:02.787Z,52.70
2019-03-01T19:53:32.165Z,68.40
2019-03-01T19:56:01.611Z,58.45
2019-03-01T19:58:30.993Z,48.65
2019-03-01T20:01:00.419Z,62.78
2019-03-01T20:03:29.867Z,55.15
2019-03-01T20:05:59.295Z,52.05
2019-03-01T20:08:29.596Z,54.73
2019-03-01T20:10:59.742Z,48.65
2019-03-01T20:13:29.107Z,44.58
2019-03-01T20:15:58.489Z,48.90
2019-03-01T20:18:27.936Z,50.58
2019-03-01T20:20:57.354Z,50.70
2019-03-01T20:23:29.539Z,56.58
2019-03-01T20:25:57.941Z,46.05
2019-03-01T20:28:27.367Z,48.68
2019-03-01T20:30:56.810Z,49.55
2019-03-01T20:33:27.151Z,52.45
2019-03-01T20:35:57.254Z,51.98
2019-03-01T20:38:26.691Z,58.90
2019-03-01T20:40:56.125Z,69.45
2019-03-01T20:43:25.589Z,66.72
2019-03-01T20:45:54.947Z,63.13
2019-03-01T20:48:25.665Z,56.60
2019-03-01T20:50:55.558Z,58.65
2019-03-01T20:53:24.931Z,50.58
2019-03-01T20:55:54.384Z,50.05
2019-03-01T20:58:23.752Z,46.08
2019-03-01T21:00:53.238Z,46.28
2019-03-01T21:03:24.073Z,48.58
2019-03-01T21:05:53.680Z,50.85
2019-03-01T21:08:28.795Z,44.30
2019-03-01T21:10:54.180Z,39.70
2019-03-01T21:13:23.527Z,47.55
2019-03-01T21:15:53.293Z,49.55
2019-03-01T21:18:22.780Z,48.33
2019-03-01T21:20:53.732Z,44.53
2019-03-01T21:23:23.212Z,46.35
2019-03-01T21:25:52.596Z,50.75
2019-03-01T21:28:21.953Z,51.02
2019-03-01T21:30:51.376Z,47.93
2019-03-01T21:33:24.115Z,51.58
2019-03-01T21:35:52.100Z,41.88
2019-03-01T21:38:21.462Z,44.27
2019-03-01T21:40:50.958Z,48.17
2019-03-01T21:43:20.369Z,52.60
2019-03-01T21:45:49.797Z,47.58
2019-03-01T21:48:21.943Z,46.30
2019-03-01T21:50:51.261Z,40.78
2019-03-01T21:53:20.667Z,38.55
2019-03-01T21:55:50.084Z,42.17
2019-03-01T21:58:19.510Z,43.05
2019-03-01T22:00:48.887Z,43.65
2019-03-01T22:03:18.246Z,46.85
2019-03-01T22:05:48.566Z,50.88
2019-03-01T22:08:18.836Z,51.65
2019-03-01T22:10:48.180Z,47.70
2019-03-01T22:13:17.715Z,44.18
2019-03-01T22:15:47.156Z,44.40
2019-03-01T22:18:16.592Z,46.88
2019-03-01T22:20:46.017Z,50.85
2019-03-01T22:23:16.488Z,43.75
2019-03-01T22:25:46.056Z,44.95
2019-03-01T22:28:15.589Z,43.78
2019-03-01T22:30:44.960Z,39.98
2019-03-01T22:33:17.437Z,40.40
2019-03-01T22:35:45.643Z,40.90
2019-03-01T22:38:15.084Z,36.53
2019-03-01T22:40:44.529Z,45.50
2019-03-01T22:43:13.902Z,43.85
2019-03-01T22:45:45.495Z,44.40
2019-03-01T22:48:14.439Z,44.27
2019-03-01T22:50:43.861Z,41.45
2019-03-01T22:53:13.290Z,41.18
2019-03-01T22:55:42.728Z,37.23
2019-03-01T22:58:12.165Z,34.98
2019-03-01T23:01:08.570Z,30.75
2019-03-01T23:03:38.000Z,29.12
2019-03-01T23:06:07.371Z,39.15
2019-03-01T23:08:36.730Z,32.48
2019-03-01T23:11:06.257Z,29.10
2019-03-01T23:13:35.680Z,33.42
2019-03-01T23:16:05.524Z,35.00
2019-03-01T23:18:37.609Z,28.30
2019-03-01T23:21:06.103Z,28.98
2019-03-01T23:23:35.519Z,28.85
2019-03-01T23:26:04.934Z,27.62
2019-03-01T23:28:34.349Z,27.58
2019-03-01T23:31:04.662Z,30.52
2019-03-01T23:33:34.075Z,28.98
2019-03-01T23:36:03.436Z,31.07
2019-03-01T23:38:32.870Z,28.40
2019-03-01T23:41:02.242Z,34.67
2019-03-01T23:43:31.784Z,36.93
2019-03-01T23:46:01.134Z,35.15
2019-03-01T23:48:30.572Z,40.03
2019-03-01T23:50:59.932Z,42.00
2019-03-01T23:53:30.888Z,39.00
2019-03-01T23:56:00.939Z,39.58
2019-03-01T23:58:30.370Z,38.55
